sensor_id;sensor_type;location;lat;lon;timestamp;pressure;altitude;pressure_sealevel;temperature
22322;BMP180;11328;53.928;18.522;2023-05-07T00:02:01;101134.00;;;8.60
22322;BMP180;11328;53.928;18.522;2023-05-07T00:04:28;101107.00;;;8.50
22322;BMP180;11328;53.928;18.522;2023-05-07T00:06:55;101143.00;;;8.50
22322;BMP180;11328;53.928;18.522;2023-05-07T00:09:22;101139.00;;;8.50
22322;BMP180;11328;53.928;18.522;2023-05-07T00:11:49;101143.00;;;8.50
22322;BMP180;11328;53.928;18.522;2023-05-07T00:14:16;101135.00;;;8.50
22322;BMP180;11328;53.928;18.522;2023-05-07T00:16:43;101137.00;;;8.40
22322;BMP180;11328;53.928;18.522;2023-05-07T00:19:10;101131.00;;;8.40
22322;BMP180;11328;53.928;18.522;2023-05-07T00:21:37;101136.00;;;8.40
22322;BMP180;11328;53.928;18.522;2023-05-07T00:24:04;101139.00;;;8.40
22322;BMP180;11328;53.928;18.522;2023-05-07T00:26:31;101137.00;;;8.50
22322;BMP180;11328;53.928;18.522;2023-05-07T00:28:58;101136.00;;;8.40
22322;BMP180;11328;53.928;18.522;2023-05-07T00:31:25;101142.00;;;8.40
22322;BMP180;11328;53.928;18.522;2023-05-07T00:33:52;101141.00;;;8.40
22322;BMP180;11328;53.928;18.522;2023-05-07T00:36:19;101138.00;;;8.40
22322;BMP180;11328;53.928;18.522;2023-05-07T00:38:45;101143.00;;;8.30
22322;BMP180;11328;53.928;18.522;2023-05-07T00:41:12;101136.00;;;8.30
22322;BMP180;11328;53.928;18.522;2023-05-07T00:43:39;101142.00;;;8.20
22322;BMP180;11328;53.928;18.522;2023-05-07T00:46:06;101151.00;;;8.20
22322;BMP180;11328;53.928;18.522;2023-05-07T00:48:33;101149.00;;;8.10
22322;BMP180;11328;53.928;18.522;2023-05-07T00:51:00;101141.00;;;8.00
22322;BMP180;11328;53.928;18.522;2023-05-07T00:53:27;101145.00;;;8.10
22322;BMP180;11328;53.928;18.522;2023-05-07T00:55:55;101150.00;;;8.00
22322;BMP180;11328;53.928;18.522;2023-05-07T00:58:23;101147.00;;;8.00
22322;BMP180;11328;53.928;18.522;2023-05-07T01:00:50;101156.00;;;7.90
22322;BMP180;11328;53.928;18.522;2023-05-07T01:03:17;101149.00;;;7.90
22322;BMP180;11328;53.928;18.522;2023-05-07T01:05:47;101121.00;;;7.90
22322;BMP180;11328;53.928;18.522;2023-05-07T01:08:15;101127.00;;;7.90
22322;BMP180;11328;53.928;18.522;2023-05-07T01:10:43;101164.00;;;7.90
22322;BMP180;11328;53.928;18.522;2023-05-07T01:13:13;101164.00;;;7.90
22322;BMP180;11328;53.928;18.522;2023-05-07T01:15:40;101159.00;;;7.80
22322;BMP180;11328;53.928;18.522;2023-05-07T01:18:07;101162.00;;;7.90
22322;BMP180;11328;53.928;18.522;2023-05-07T01:20:34;101164.00;;;7.80
22322;BMP180;11328;53.928;18.522;2023-05-07T01:23:03;101164.00;;;7.80
22322;BMP180;11328;53.928;18.522;2023-05-07T01:25:33;101164.00;;;7.80
22322;BMP180;11328;53.928;18.522;2023-05-07T01:28:00;101161.00;;;7.80
22322;BMP180;11328;53.928;18.522;2023-05-07T01:30:29;101159.00;;;7.80
22322;BMP180;11328;53.928;18.522;2023-05-07T01:33:09;101160.00;;;7.70
22322;BMP180;11328;53.928;18.522;2023-05-07T01:35:45;101161.00;;;7.80
22322;BMP180;11328;53.928;18.522;2023-05-07T01:38:13;101158.00;;;7.80
22322;BMP180;11328;53.928;18.522;2023-05-07T01:40:40;101157.00;;;7.70
22322;BMP180;11328;53.928;18.522;2023-05-07T01:43:08;101160.00;;;7.70
22322;BMP180;11328;53.928;18.522;2023-05-07T01:45:36;101166.00;;;7.70
22322;BMP180;11328;53.928;18.522;2023-05-07T01:48:04;101168.00;;;7.60
22322;BMP180;11328;53.928;18.522;2023-05-07T01:50:32;101172.00;;;7.60
22322;BMP180;11328;53.928;18.522;2023-05-07T01:52:59;101165.00;;;7.60
22322;BMP180;11328;53.928;18.522;2023-05-07T01:55:26;101170.00;;;7.60
22322;BMP180;11328;53.928;18.522;2023-05-07T01:57:53;101175.00;;;7.50
22322;BMP180;11328;53.928;18.522;2023-05-07T02:00:20;101172.00;;;7.50
22322;BMP180;11328;53.928;18.522;2023-05-07T02:02:47;101167.00;;;7.50
22322;BMP180;11328;53.928;18.522;2023-05-07T02:05:14;101178.00;;;7.50
22322;BMP180;11328;53.928;18.522;2023-05-07T02:07:41;101174.00;;;7.50
22322;BMP180;11328;53.928;18.522;2023-05-07T02:10:08;101168.00;;;7.50
22322;BMP180;11328;53.928;18.522;2023-05-07T02:12:36;101183.00;;;7.40
22322;BMP180;11328;53.928;18.522;2023-05-07T02:15:03;101179.00;;;7.40
22322;BMP180;11328;53.928;18.522;2023-05-07T02:17:30;101184.00;;;7.40
22322;BMP180;11328;53.928;18.522;2023-05-07T02:19:58;101190.00;;;7.40
22322;BMP180;11328;53.928;18.522;2023-05-07T02:22:26;101186.00;;;7.30
22322;BMP180;11328;53.928;18.522;2023-05-07T02:24:53;101187.00;;;7.30
22322;BMP180;11328;53.928;18.522;2023-05-07T02:27:20;101197.00;;;7.30
22322;BMP180;11328;53.928;18.522;2023-05-07T02:29:46;101199.00;;;7.20
22322;BMP180;11328;53.928;18.522;2023-05-07T02:32:13;101205.00;;;7.20
22322;BMP180;11328;53.928;18.522;2023-05-07T02:34:40;101202.00;;;7.10
22322;BMP180;11328;53.928;18.522;2023-05-07T02:37:07;101204.00;;;7.20
22322;BMP180;11328;53.928;18.522;2023-05-07T02:39:34;101212.00;;;7.10
22322;BMP180;11328;53.928;18.522;2023-05-07T02:42:01;101206.00;;;7.00
22322;BMP180;11328;53.928;18.522;2023-05-07T02:44:28;101210.00;;;7.00
22322;BMP180;11328;53.928;18.522;2023-05-07T02:46:58;101207.00;;;7.00
22322;BMP180;11328;53.928;18.522;2023-05-07T02:49:24;101202.00;;;6.90
22322;BMP180;11328;53.928;18.522;2023-05-07T02:51:51;101214.00;;;7.00
22322;BMP180;11328;53.928;18.522;2023-05-07T02:54:18;101213.00;;;6.90
22322;BMP180;11328;53.928;18.522;2023-05-07T02:56:45;101208.00;;;6.90
22322;BMP180;11328;53.928;18.522;2023-05-07T02:59:12;101208.00;;;6.90
22322;BMP180;11328;53.928;18.522;2023-05-07T03:01:39;101210.00;;;6.80
22322;BMP180;11328;53.928;18.522;2023-05-07T03:04:06;101210.00;;;6.70
22322;BMP180;11328;53.928;18.522;2023-05-07T03:06:32;101212.00;;;6.70
22322;BMP180;11328;53.928;18.522;2023-05-07T03:08:59;101216.00;;;6.80
22322;BMP180;11328;53.928;18.522;2023-05-07T03:11:26;101218.00;;;6.70
22322;BMP180;11328;53.928;18.522;2023-05-07T03:13:53;101233.00;;;6.70
22322;BMP180;11328;53.928;18.522;2023-05-07T03:16:20;101222.00;;;6.70
22322;BMP180;11328;53.928;18.522;2023-05-07T03:18:47;101227.00;;;6.70
22322;BMP180;11328;53.928;18.522;2023-05-07T03:21:14;101228.00;;;6.60
22322;BMP180;11328;53.928;18.522;2023-05-07T03:23:41;101227.00;;;6.60
22322;BMP180;11328;53.928;18.522;2023-05-07T03:26:08;101231.00;;;6.70
22322;BMP180;11328;53.928;18.522;2023-05-07T03:28:35;101236.00;;;6.60
22322;BMP180;11328;53.928;18.522;2023-05-07T03:31:02;101239.00;;;6.70
22322;BMP180;11328;53.928;18.522;2023-05-07T03:33:29;101231.00;;;6.70
22322;BMP180;11328;53.928;18.522;2023-05-07T03:35:55;101235.00;;;6.70
22322;BMP180;11328;53.928;18.522;2023-05-07T03:38:22;101240.00;;;6.70
22322;BMP180;11328;53.928;18.522;2023-05-07T03:40:49;101234.00;;;6.70
22322;BMP180;11328;53.928;18.522;2023-05-07T03:43:16;101227.00;;;6.60
22322;BMP180;11328;53.928;18.522;2023-05-07T03:45:43;101243.00;;;6.70
22322;BMP180;11328;53.928;18.522;2023-05-07T03:48:10;101244.00;;;6.70
22322;BMP180;11328;53.928;18.522;2023-05-07T03:50:38;101242.00;;;6.70
22322;BMP180;11328;53.928;18.522;2023-05-07T03:53:05;101246.00;;;6.60
22322;BMP180;11328;53.928;18.522;2023-05-07T03:55:31;101249.00;;;6.70
22322;BMP180;11328;53.928;18.522;2023-05-07T03:57:58;101243.00;;;6.70
22322;BMP180;11328;53.928;18.522;2023-05-07T04:00:25;101246.00;;;6.70
22322;BMP180;11328;53.928;18.522;2023-05-07T04:02:52;101242.00;;;6.70
22322;BMP180;11328;53.928;18.522;2023-05-07T04:05:19;101249.00;;;6.70
22322;BMP180;11328;53.928;18.522;2023-05-07T04:07:46;101251.00;;;6.80
22322;BMP180;11328;53.928;18.522;2023-05-07T04:10:13;101244.00;;;6.70
22322;BMP180;11328;53.928;18.522;2023-05-07T04:12:40;101250.00;;;6.80
22322;BMP180;11328;53.928;18.522;2023-05-07T04:15:07;101231.00;;;6.80
22322;BMP180;11328;53.928;18.522;2023-05-07T04:17:34;101254.00;;;6.90
22322;BMP180;11328;53.928;18.522;2023-05-07T04:20:02;101261.00;;;6.90
22322;BMP180;11328;53.928;18.522;2023-05-07T04:22:29;101271.00;;;7.00
22322;BMP180;11328;53.928;18.522;2023-05-07T04:24:56;101269.00;;;7.10
22322;BMP180;11328;53.928;18.522;2023-05-07T04:27:23;101262.00;;;7.20
22322;BMP180;11328;53.928;18.522;2023-05-07T04:29:50;101268.00;;;7.10
22322;BMP180;11328;53.928;18.522;2023-05-07T04:32:18;101272.00;;;7.20
22322;BMP180;11328;53.928;18.522;2023-05-07T04:34:45;101266.00;;;7.40
22322;BMP180;11328;53.928;18.522;2023-05-07T04:37:12;101277.00;;;7.50
22322;BMP180;11328;53.928;18.522;2023-05-07T04:39:39;101273.00;;;7.60
22322;BMP180;11328;53.928;18.522;2023-05-07T04:42:06;101283.00;;;7.60
22322;BMP180;11328;53.928;18.522;2023-05-07T04:44:35;101277.00;;;7.60
22322;BMP180;11328;53.928;18.522;2023-05-07T04:47:04;101280.00;;;7.70
22322;BMP180;11328;53.928;18.522;2023-05-07T04:49:31;101277.00;;;7.90
22322;BMP180;11328;53.928;18.522;2023-05-07T04:51:57;101285.00;;;8.00
22322;BMP180;11328;53.928;18.522;2023-05-07T04:54:24;101288.00;;;8.10
22322;BMP180;11328;53.928;18.522;2023-05-07T04:56:51;101294.00;;;8.30
22322;BMP180;11328;53.928;18.522;2023-05-07T04:59:18;101291.00;;;8.30
22322;BMP180;11328;53.928;18.522;2023-05-07T05:01:45;101291.00;;;8.50
22322;BMP180;11328;53.928;18.522;2023-05-07T05:04:12;101289.00;;;8.60
22322;BMP180;11328;53.928;18.522;2023-05-07T05:06:39;101296.00;;;8.80
22322;BMP180;11328;53.928;18.522;2023-05-07T05:09:06;101294.00;;;9.00
22322;BMP180;11328;53.928;18.522;2023-05-07T05:11:33;101294.00;;;9.20
22322;BMP180;11328;53.928;18.522;2023-05-07T05:14:01;101299.00;;;9.40
22322;BMP180;11328;53.928;18.522;2023-05-07T05:16:28;101300.00;;;9.70
22322;BMP180;11328;53.928;18.522;2023-05-07T05:18:55;101302.00;;;10.00
22322;BMP180;11328;53.928;18.522;2023-05-07T05:21:22;101300.00;;;10.10
22322;BMP180;11328;53.928;18.522;2023-05-07T05:23:49;101305.00;;;10.50
22322;BMP180;11328;53.928;18.522;2023-05-07T05:26:16;101313.00;;;10.80
22322;BMP180;11328;53.928;18.522;2023-05-07T05:28:43;101314.00;;;11.00
22322;BMP180;11328;53.928;18.522;2023-05-07T05:31:10;101318.00;;;11.00
22322;BMP180;11328;53.928;18.522;2023-05-07T05:33:37;101314.00;;;11.00
22322;BMP180;11328;53.928;18.522;2023-05-07T05:36:04;101321.00;;;11.20
22322;BMP180;11328;53.928;18.522;2023-05-07T05:38:31;101311.00;;;11.50
22322;BMP180;11328;53.928;18.522;2023-05-07T05:40:58;101312.00;;;11.60
22322;BMP180;11328;53.928;18.522;2023-05-07T05:43:25;101313.00;;;11.80
22322;BMP180;11328;53.928;18.522;2023-05-07T05:45:52;101310.00;;;12.00
22322;BMP180;11328;53.928;18.522;2023-05-07T05:48:19;101314.00;;;11.90
22322;BMP180;11328;53.928;18.522;2023-05-07T05:50:46;101314.00;;;12.10
22322;BMP180;11328;53.928;18.522;2023-05-07T05:53:13;101322.00;;;12.10
22322;BMP180;11328;53.928;18.522;2023-05-07T05:55:40;101326.00;;;12.00
22322;BMP180;11328;53.928;18.522;2023-05-07T05:58:08;101325.00;;;12.20
22322;BMP180;11328;53.928;18.522;2023-05-07T06:00:35;101327.00;;;12.30
22322;BMP180;11328;53.928;18.522;2023-05-07T06:03:03;101306.00;;;12.70
22322;BMP180;11328;53.928;18.522;2023-05-07T06:05:30;101332.00;;;12.80
22322;BMP180;11328;53.928;18.522;2023-05-07T06:07:57;101327.00;;;12.90
22322;BMP180;11328;53.928;18.522;2023-05-07T06:10:24;101337.00;;;13.00
22322;BMP180;11328;53.928;18.522;2023-05-07T06:12:50;101336.00;;;13.00
22322;BMP180;11328;53.928;18.522;2023-05-07T06:15:17;101340.00;;;13.10
22322;BMP180;11328;53.928;18.522;2023-05-07T06:17:44;101343.00;;;13.30
22322;BMP180;11328;53.928;18.522;2023-05-07T06:20:11;101333.00;;;13.40
22322;BMP180;11328;53.928;18.522;2023-05-07T06:22:38;101334.00;;;13.50
22322;BMP180;11328;53.928;18.522;2023-05-07T06:25:06;101342.00;;;13.70
22322;BMP180;11328;53.928;18.522;2023-05-07T06:27:33;101346.00;;;13.80
22322;BMP180;11328;53.928;18.522;2023-05-07T06:30:00;101339.00;;;14.10
22322;BMP180;11328;53.928;18.522;2023-05-07T06:32:27;101351.00;;;14.40
22322;BMP180;11328;53.928;18.522;2023-05-07T06:34:54;101347.00;;;14.50
22322;BMP180;11328;53.928;18.522;2023-05-07T06:37:25;101359.00;;;14.90
22322;BMP180;11328;53.928;18.522;2023-05-07T06:39:52;101347.00;;;14.90
22322;BMP180;11328;53.928;18.522;2023-05-07T06:42:19;101347.00;;;15.20
22322;BMP180;11328;53.928;18.522;2023-05-07T06:44:46;101348.00;;;15.30
22322;BMP180;11328;53.928;18.522;2023-05-07T06:47:12;101349.00;;;15.70
22322;BMP180;11328;53.928;18.522;2023-05-07T06:49:42;101355.00;;;15.90
22322;BMP180;11328;53.928;18.522;2023-05-07T06:52:09;101361.00;;;16.10
22322;BMP180;11328;53.928;18.522;2023-05-07T06:54:36;101348.00;;;16.10
22322;BMP180;11328;53.928;18.522;2023-05-07T06:57:02;101352.00;;;16.30
22322;BMP180;11328;53.928;18.522;2023-05-07T06:59:29;101350.00;;;16.80
22322;BMP180;11328;53.928;18.522;2023-05-07T07:01:56;101356.00;;;17.00
22322;BMP180;11328;53.928;18.522;2023-05-07T07:04:23;101352.00;;;17.00
22322;BMP180;11328;53.928;18.522;2023-05-07T07:06:53;101357.00;;;17.20
22322;BMP180;11328;53.928;18.522;2023-05-07T07:09:20;101351.00;;;17.10
22322;BMP180;11328;53.928;18.522;2023-05-07T07:11:49;101357.00;;;17.20
22322;BMP180;11328;53.928;18.522;2023-05-07T07:14:16;101359.00;;;17.10
22322;BMP180;11328;53.928;18.522;2023-05-07T07:16:43;101359.00;;;17.30
22322;BMP180;11328;53.928;18.522;2023-05-07T07:19:10;101369.00;;;17.30
22322;BMP180;11328;53.928;18.522;2023-05-07T07:21:37;101377.00;;;17.40
22322;BMP180;11328;53.928;18.522;2023-05-07T07:24:04;101376.00;;;17.30
22322;BMP180;11328;53.928;18.522;2023-05-07T07:26:31;101371.00;;;17.30
22322;BMP180;11328;53.928;18.522;2023-05-07T07:28:58;101370.00;;;17.40
22322;BMP180;11328;53.928;18.522;2023-05-07T07:31:25;101374.00;;;17.30
22322;BMP180;11328;53.928;18.522;2023-05-07T07:33:52;101375.00;;;17.40
22322;BMP180;11328;53.928;18.522;2023-05-07T07:36:19;101370.00;;;17.60
22322;BMP180;11328;53.928;18.522;2023-05-07T07:38:49;101377.00;;;17.80
22322;BMP180;11328;53.928;18.522;2023-05-07T07:41:15;101376.00;;;17.90
22322;BMP180;11328;53.928;18.522;2023-05-07T07:43:42;101373.00;;;18.00
22322;BMP180;11328;53.928;18.522;2023-05-07T07:46:09;101377.00;;;18.10
22322;BMP180;11328;53.928;18.522;2023-05-07T07:48:36;101382.00;;;17.90
22322;BMP180;11328;53.928;18.522;2023-05-07T07:51:04;101378.00;;;17.60
22322;BMP180;11328;53.928;18.522;2023-05-07T07:53:31;101385.00;;;17.70
22322;BMP180;11328;53.928;18.522;2023-05-07T07:55:58;101388.00;;;17.80
22322;BMP180;11328;53.928;18.522;2023-05-07T07:58:25;101389.00;;;17.90
22322;BMP180;11328;53.928;18.522;2023-05-07T08:00:52;101387.00;;;17.80
22322;BMP180;11328;53.928;18.522;2023-05-07T08:03:19;101384.00;;;18.00
22322;BMP180;11328;53.928;18.522;2023-05-07T08:05:46;101381.00;;;17.90
22322;BMP180;11328;53.928;18.522;2023-05-07T08:08:13;101381.00;;;17.80
22322;BMP180;11328;53.928;18.522;2023-05-07T08:10:40;101386.00;;;17.90
22322;BMP180;11328;53.928;18.522;2023-05-07T08:13:07;101388.00;;;18.20
22322;BMP180;11328;53.928;18.522;2023-05-07T08:15:35;101379.00;;;18.50
22322;BMP180;11328;53.928;18.522;2023-05-07T08:18:02;101389.00;;;18.30
22322;BMP180;11328;53.928;18.522;2023-05-07T08:20:29;101383.00;;;17.90
22322;BMP180;11328;53.928;18.522;2023-05-07T08:22:56;101395.00;;;18.00
22322;BMP180;11328;53.928;18.522;2023-05-07T08:25:23;101387.00;;;17.90
22322;BMP180;11328;53.928;18.522;2023-05-07T08:27:50;101388.00;;;18.10
22322;BMP180;11328;53.928;18.522;2023-05-07T08:30:17;101385.00;;;17.90
22322;BMP180;11328;53.928;18.522;2023-05-07T08:32:44;101397.00;;;18.00
22322;BMP180;11328;53.928;18.522;2023-05-07T08:35:11;101386.00;;;18.00
22322;BMP180;11328;53.928;18.522;2023-05-07T08:37:38;101392.00;;;18.40
22322;BMP180;11328;53.928;18.522;2023-05-07T08:40:06;101385.00;;;18.40
22322;BMP180;11328;53.928;18.522;2023-05-07T08:42:37;101400.00;;;18.20
22322;BMP180;11328;53.928;18.522;2023-05-07T08:45:09;101391.00;;;18.10
22322;BMP180;11328;53.928;18.522;2023-05-07T08:47:46;101384.00;;;18.00
22322;BMP180;11328;53.928;18.522;2023-05-07T08:50:13;101394.00;;;18.40
22322;BMP180;11328;53.928;18.522;2023-05-07T08:52:40;101394.00;;;18.50
22322;BMP180;11328;53.928;18.522;2023-05-07T08:55:09;101401.00;;;19.00
22322;BMP180;11328;53.928;18.522;2023-05-07T08:57:37;101396.00;;;19.30
22322;BMP180;11328;53.928;18.522;2023-05-07T09:00:07;101394.00;;;19.10
22322;BMP180;11328;53.928;18.522;2023-05-07T09:02:37;101407.00;;;18.70
22322;BMP180;11328;53.928;18.522;2023-05-07T09:05:05;101403.00;;;18.60
22322;BMP180;11328;53.928;18.522;2023-05-07T09:07:32;101405.00;;;18.60
22322;BMP180;11328;53.928;18.522;2023-05-07T09:10:03;101409.00;;;19.00
22322;BMP180;11328;53.928;18.522;2023-05-07T09:12:31;101411.00;;;19.00
22322;BMP180;11328;53.928;18.522;2023-05-07T09:14:59;101404.00;;;19.20
22322;BMP180;11328;53.928;18.522;2023-05-07T09:17:26;101406.00;;;19.30
22322;BMP180;11328;53.928;18.522;2023-05-07T09:19:54;101413.00;;;18.90
22322;BMP180;11328;53.928;18.522;2023-05-07T09:22:21;101408.00;;;19.10
22322;BMP180;11328;53.928;18.522;2023-05-07T09:24:51;101406.00;;;19.80
22322;BMP180;11328;53.928;18.522;2023-05-07T09:27:18;101411.00;;;19.90
22322;BMP180;11328;53.928;18.522;2023-05-07T09:29:45;101411.00;;;19.90
22322;BMP180;11328;53.928;18.522;2023-05-07T09:32:12;101412.00;;;20.00
22322;BMP180;11328;53.928;18.522;2023-05-07T09:34:41;101407.00;;;20.00
22322;BMP180;11328;53.928;18.522;2023-05-07T09:37:08;101410.00;;;19.90
22322;BMP180;11328;53.928;18.522;2023-05-07T09:39:47;101404.00;;;19.60
22322;BMP180;11328;53.928;18.522;2023-05-07T09:42:14;101411.00;;;20.00
22322;BMP180;11328;53.928;18.522;2023-05-07T09:44:43;101412.00;;;20.10
22322;BMP180;11328;53.928;18.522;2023-05-07T09:47:18;101411.00;;;20.00
22322;BMP180;11328;53.928;18.522;2023-05-07T09:49:48;101417.00;;;20.10
22322;BMP180;11328;53.928;18.522;2023-05-07T09:52:15;101406.00;;;20.50
22322;BMP180;11328;53.928;18.522;2023-05-07T09:54:45;101415.00;;;20.20
22322;BMP180;11328;53.928;18.522;2023-05-07T09:57:15;101414.00;;;20.50
22322;BMP180;11328;53.928;18.522;2023-05-07T09:59:43;101413.00;;;20.50
22322;BMP180;11328;53.928;18.522;2023-05-07T10:02:11;101415.00;;;20.30
22322;BMP180;11328;53.928;18.522;2023-05-07T10:04:40;101415.00;;;20.50
22322;BMP180;11328;53.928;18.522;2023-05-07T10:07:08;101415.00;;;20.40
22322;BMP180;11328;53.928;18.522;2023-05-07T10:09:36;101416.00;;;20.00
22322;BMP180;11328;53.928;18.522;2023-05-07T10:12:06;101414.00;;;19.60
22322;BMP180;11328;53.928;18.522;2023-05-07T10:14:34;101429.00;;;19.50
22322;BMP180;11328;53.928;18.522;2023-05-07T10:17:02;101424.00;;;19.40
22322;BMP180;11328;53.928;18.522;2023-05-07T10:19:30;101426.00;;;19.30
22322;BMP180;11328;53.928;18.522;2023-05-07T10:22:05;101423.00;;;19.40
22322;BMP180;11328;53.928;18.522;2023-05-07T10:24:33;101418.00;;;19.80
22322;BMP180;11328;53.928;18.522;2023-05-07T10:27:07;101431.00;;;19.80
22322;BMP180;11328;53.928;18.522;2023-05-07T10:33:06;101437.00;;;20.10
22322;BMP180;11328;53.928;18.522;2023-05-07T10:35:43;101422.00;;;20.20
22322;BMP180;11328;53.928;18.522;2023-05-07T10:38:11;101429.00;;;20.20
22322;BMP180;11328;53.928;18.522;2023-05-07T10:40:39;101422.00;;;20.10
22322;BMP180;11328;53.928;18.522;2023-05-07T10:43:07;101426.00;;;20.40
22322;BMP180;11328;53.928;18.522;2023-05-07T10:45:36;101431.00;;;20.50
22322;BMP180;11328;53.928;18.522;2023-05-07T10:48:17;101426.00;;;20.00
22322;BMP180;11328;53.928;18.522;2023-05-07T10:50:46;101427.00;;;20.00
22322;BMP180;11328;53.928;18.522;2023-05-07T10:58:25;101417.00;;;20.50
22322;BMP180;11328;53.928;18.522;2023-05-07T11:01:00;101412.00;;;20.10
22322;BMP180;11328;53.928;18.522;2023-05-07T11:03:28;101422.00;;;19.80
22322;BMP180;11328;53.928;18.522;2023-05-07T11:06:16;101404.00;;;19.80
22322;BMP180;11328;53.928;18.522;2023-05-07T11:08:58;101419.00;;;19.80
22322;BMP180;11328;53.928;18.522;2023-05-07T11:11:50;101422.00;;;20.40
22322;BMP180;11328;53.928;18.522;2023-05-07T11:17:09;101420.00;;;20.50
22322;BMP180;11328;53.928;18.522;2023-05-07T11:19:52;101423.00;;;20.60
22322;BMP180;11328;53.928;18.522;2023-05-07T11:25:05;101431.00;;;20.70
22322;BMP180;11328;53.928;18.522;2023-05-07T11:27:33;101421.00;;;20.80
22322;BMP180;11328;53.928;18.522;2023-05-07T11:30:00;101422.00;;;20.90
22322;BMP180;11328;53.928;18.522;2023-05-07T11:32:31;101422.00;;;20.70
22322;BMP180;11328;53.928;18.522;2023-05-07T11:35:00;101388.00;;;20.40
22322;BMP180;11328;53.928;18.522;2023-05-07T11:37:28;101416.00;;;20.30
22322;BMP180;11328;53.928;18.522;2023-05-07T11:40:07;101400.00;;;19.80
22322;BMP180;11328;53.928;18.522;2023-05-07T11:42:40;101409.00;;;19.50
22322;BMP180;11328;53.928;18.522;2023-05-07T11:45:09;101407.00;;;20.00
22322;BMP180;11328;53.928;18.522;2023-05-07T11:47:37;101410.00;;;20.10
22322;BMP180;11328;53.928;18.522;2023-05-07T11:50:07;101422.00;;;20.10
22322;BMP180;11328;53.928;18.522;2023-05-07T11:52:35;101415.00;;;19.90
22322;BMP180;11328;53.928;18.522;2023-05-07T11:55:03;101417.00;;;20.20
22322;BMP180;11328;53.928;18.522;2023-05-07T11:57:33;101414.00;;;20.70
22322;BMP180;11328;53.928;18.522;2023-05-07T12:00:02;101393.00;;;20.60
22322;BMP180;11328;53.928;18.522;2023-05-07T12:02:31;101410.00;;;20.40
22322;BMP180;11328;53.928;18.522;2023-05-07T12:05:00;101404.00;;;20.10
22322;BMP180;11328;53.928;18.522;2023-05-07T12:07:29;101415.00;;;19.90
22322;BMP180;11328;53.928;18.522;2023-05-07T12:09:56;101428.00;;;20.20
22322;BMP180;11328;53.928;18.522;2023-05-07T12:12:23;101427.00;;;20.20
22322;BMP180;11328;53.928;18.522;2023-05-07T12:14:50;101425.00;;;20.30
22322;BMP180;11328;53.928;18.522;2023-05-07T12:17:17;101438.00;;;20.40
22322;BMP180;11328;53.928;18.522;2023-05-07T12:19:45;101441.00;;;20.20
22322;BMP180;11328;53.928;18.522;2023-05-07T12:22:12;101443.00;;;20.40
22322;BMP180;11328;53.928;18.522;2023-05-07T12:24:47;101423.00;;;20.40
22322;BMP180;11328;53.928;18.522;2023-05-07T12:27:16;101429.00;;;19.90
22322;BMP180;11328;53.928;18.522;2023-05-07T12:29:50;101437.00;;;19.80
22322;BMP180;11328;53.928;18.522;2023-05-07T12:32:19;101436.00;;;19.80
22322;BMP180;11328;53.928;18.522;2023-05-07T12:34:50;101443.00;;;19.60
22322;BMP180;11328;53.928;18.522;2023-05-07T12:37:24;101454.00;;;19.70
22322;BMP180;11328;53.928;18.522;2023-05-07T12:40:11;101444.00;;;19.70
22322;BMP180;11328;53.928;18.522;2023-05-07T12:42:40;101437.00;;;19.50
22322;BMP180;11328;53.928;18.522;2023-05-07T12:45:16;101447.00;;;19.90
22322;BMP180;11328;53.928;18.522;2023-05-07T12:47:47;101454.00;;;20.00
22322;BMP180;11328;53.928;18.522;2023-05-07T12:50:15;101442.00;;;19.70
22322;BMP180;11328;53.928;18.522;2023-05-07T12:52:47;101444.00;;;19.60
22322;BMP180;11328;53.928;18.522;2023-05-07T12:55:16;101448.00;;;19.50
22322;BMP180;11328;53.928;18.522;2023-05-07T12:57:48;101442.00;;;19.50
22322;BMP180;11328;53.928;18.522;2023-05-07T13:00:16;101439.00;;;19.60
22322;BMP180;11328;53.928;18.522;2023-05-07T13:02:44;101442.00;;;19.60
22322;BMP180;11328;53.928;18.522;2023-05-07T13:05:12;101444.00;;;19.80
22322;BMP180;11328;53.928;18.522;2023-05-07T13:07:39;101440.00;;;19.80
22322;BMP180;11328;53.928;18.522;2023-05-07T13:10:08;101434.00;;;19.90
22322;BMP180;11328;53.928;18.522;2023-05-07T13:12:35;101437.00;;;19.90
22322;BMP180;11328;53.928;18.522;2023-05-07T13:15:02;101430.00;;;19.80
22322;BMP180;11328;53.928;18.522;2023-05-07T13:17:29;101447.00;;;19.70
22322;BMP180;11328;53.928;18.522;2023-05-07T13:19:58;101443.00;;;19.50
22322;BMP180;11328;53.928;18.522;2023-05-07T13:22:25;101447.00;;;19.20
22322;BMP180;11328;53.928;18.522;2023-05-07T13:24:52;101443.00;;;18.90
22322;BMP180;11328;53.928;18.522;2023-05-07T13:27:19;101436.00;;;18.90
22322;BMP180;11328;53.928;18.522;2023-05-07T13:29:46;101427.00;;;19.00
22322;BMP180;11328;53.928;18.522;2023-05-07T13:32:13;101446.00;;;19.20
22322;BMP180;11328;53.928;18.522;2023-05-07T13:34:40;101431.00;;;19.40
22322;BMP180;11328;53.928;18.522;2023-05-07T13:37:07;101423.00;;;19.40
22322;BMP180;11328;53.928;18.522;2023-05-07T13:39:37;101427.00;;;19.10
22322;BMP180;11328;53.928;18.522;2023-05-07T13:42:04;101425.00;;;19.00
22322;BMP180;11328;53.928;18.522;2023-05-07T13:44:31;101435.00;;;18.90
22322;BMP180;11328;53.928;18.522;2023-05-07T13:46:57;101425.00;;;19.20
22322;BMP180;11328;53.928;18.522;2023-05-07T13:49:25;101434.00;;;19.20
22322;BMP180;11328;53.928;18.522;2023-05-07T13:51:51;101436.00;;;19.50
22322;BMP180;11328;53.928;18.522;2023-05-07T13:54:18;101429.00;;;19.40
22322;BMP180;11328;53.928;18.522;2023-05-07T13:56:45;101425.00;;;19.10
22322;BMP180;11328;53.928;18.522;2023-05-07T13:59:12;101427.00;;;18.80
22322;BMP180;11328;53.928;18.522;2023-05-07T14:01:41;101435.00;;;18.80
22322;BMP180;11328;53.928;18.522;2023-05-07T14:04:08;101428.00;;;19.10
22322;BMP180;11328;53.928;18.522;2023-05-07T14:06:35;101434.00;;;19.20
22322;BMP180;11328;53.928;18.522;2023-05-07T14:09:02;101435.00;;;19.40